createdAt,value
2023-01-23T00:00:48.724Z,1.93
2023-01-23T00:06:40.029Z,1.93
2023-01-23T00:12:29.357Z,2.01
2023-01-23T00:18:01.774Z,2.03
2023-01-23T00:23:55.952Z,2.00
2023-01-23T00:29:15.492Z,1.94
2023-01-23T00:34:36.391Z,1.91
2023-01-23T00:40:12.817Z,1.96
2023-01-23T00:46:00.727Z,1.97
2023-01-23T00:51:53.787Z,2.00
2023-01-23T00:57:11.238Z,1.98
2023-01-23T01:02:36.312Z,1.93
2023-01-23T01:08:01.901Z,1.95
2023-01-23T01:13:07.539Z,1.99
2023-01-23T01:18:59.857Z,2.03
2023-01-23T01:24:38.254Z,2.03
2023-01-23T01:30:41.046Z,1.98
2023-01-23T01:36:39.254Z,1.90
2023-01-23T01:41:55.531Z,1.95
2023-01-23T01:47:07.991Z,2.01
2023-01-23T01:53:28.490Z,2.02
2023-01-23T02:00:23.704Z,1.99
2023-01-23T02:07:01.017Z,1.91
2023-01-23T02:13:19.023Z,1.83
2023-01-23T02:19:19.872Z,1.84
2023-01-23T02:24:40.356Z,1.88
2023-01-23T02:30:18.566Z,1.92
2023-01-23T02:35:30.391Z,1.90
2023-01-23T02:41:01.791Z,1.88
2023-01-23T02:46:18.652Z,1.86
2023-01-23T02:51:45.168Z,1.81
2023-01-23T02:56:58.282Z,1.84
2023-01-23T03:02:18.946Z,1.90
2023-01-23T03:07:45.618Z,1.90
2023-01-23T03:13:15.159Z,1.91
2023-01-23T03:18:54.698Z,1.87
2023-01-23T03:24:44.897Z,1.87
2023-01-23T03:30:25.277Z,1.89
2023-01-23T03:36:31.980Z,1.89
2023-01-23T03:41:56.341Z,1.84
2023-01-23T03:47:12.110Z,1.82
2023-01-23T03:52:59.243Z,1.81
2023-01-23T03:58:41.054Z,1.82
2023-01-23T04:04:04.067Z,1.82
2023-01-23T04:09:12.374Z,1.80
2023-01-23T04:14:19.486Z,1.75
2023-01-23T04:19:56.761Z,1.70
2023-01-23T04:26:23.980Z,1.64
2023-01-23T04:31:32.758Z,1.61
2023-01-23T04:36:46.744Z,1.65
2023-01-23T04:42:29.440Z,1.66
2023-01-23T04:48:07.876Z,1.63
2023-01-23T04:53:26.208Z,1.66
2023-01-23T04:59:13.241Z,1.69
2023-01-23T05:04:39.549Z,1.68
2023-01-23T05:10:08.593Z,1.68
2023-01-23T05:15:30.834Z,1.65
2023-01-23T05:21:17.410Z,1.60
2023-01-23T05:27:20.020Z,1.58
2023-01-23T05:32:52.493Z,1.59
2023-01-23T05:38:55.121Z,1.60
2023-01-23T05:44:39.250Z,1.65
2023-01-23T05:50:04.616Z,1.65
2023-01-23T05:55:19.170Z,1.61
2023-01-23T06:00:24.991Z,1.61
2023-01-23T06:06:10.050Z,1.64
2023-01-23T06:11:22.238Z,1.66
2023-01-23T06:16:35.093Z,1.72
2023-01-23T06:21:43.191Z,1.71
2023-01-23T06:26:50.617Z,1.68
2023-01-23T06:32:00.074Z,1.65
2023-01-23T06:37:31.680Z,1.67
2023-01-23T06:43:32.147Z,1.69
2023-01-23T06:48:58.557Z,1.71
2023-01-23T06:54:20.577Z,1.71
2023-01-23T07:00:20.527Z,1.65
2023-01-23T07:06:30.551Z,1.62
2023-01-23T07:11:54.748Z,1.63
2023-01-23T07:17:39.997Z,1.72
2023-01-23T07:22:58.893Z,1.72
2023-01-23T07:28:20.968Z,1.71
2023-01-23T07:33:27.963Z,1.71
2023-01-23T07:38:33.591Z,1.77
2023-01-23T07:43:39.597Z,1.81
2023-01-23T07:48:42.156Z,1.87
2023-01-23T07:53:50.062Z,1.92
2023-01-23T07:58:58.842Z,1.97
2023-01-23T08:04:06.461Z,1.99
2023-01-23T08:09:50.923Z,2.07
2023-01-23T08:15:31.707Z,2.17
2023-01-23T08:21:37.656Z,2.28
2023-01-23T08:27:15.529Z,2.30
2023-01-23T08:32:34.780Z,2.34
2023-01-23T08:37:41.440Z,2.36
2023-01-23T08:43:14.908Z,2.36
2023-01-23T08:48:21.984Z,2.39
2023-01-23T08:53:25.527Z,2.43
2023-01-23T08:58:52.396Z,2.45
2023-01-23T09:04:30.820Z,2.47
2023-01-23T09:10:19.246Z,2.55
2023-01-23T09:15:56.942Z,2.66
2023-01-23T09:22:11.758Z,2.80
2023-01-23T09:27:59.612Z,2.83
2023-01-23T09:33:08.336Z,2.82
2023-01-23T09:38:16.266Z,2.91
2023-01-23T09:43:25.605Z,3.01
2023-01-23T09:49:01.770Z,3.12
2023-01-23T09:54:49.965Z,3.26
2023-01-23T10:00:59.147Z,3.32
2023-01-23T10:06:33.535Z,3.49
2023-01-23T10:13:08.617Z,3.63
2023-01-23T10:18:57.763Z,3.69
2023-01-23T10:24:47.282Z,3.72
2023-01-23T10:30:21.376Z,3.78
2023-01-23T10:35:44.431Z,3.92
2023-01-23T10:41:08.822Z,4.00
2023-01-23T10:46:20.655Z,4.09
2023-01-23T10:52:47.125Z,4.10
2023-01-23T10:58:03.874Z,4.16
2023-01-23T11:03:40.770Z,4.19
2023-01-23T11:09:05.498Z,4.19
2023-01-23T11:15:16.727Z,4.15
2023-01-23T11:20:52.235Z,3.97
2023-01-23T11:26:06.788Z,3.82
2023-01-23T11:31:26.658Z,3.81
2023-01-23T11:36:56.185Z,3.85
2023-01-23T11:42:29.729Z,3.84
2023-01-23T11:48:25.090Z,3.80
2023-01-23T11:53:47.131Z,3.74
2023-01-23T11:59:04.003Z,3.76
2023-01-23T12:05:20.795Z,3.73
2023-01-23T12:11:00.461Z,3.70
2023-01-23T12:16:12.829Z,3.72
2023-01-23T12:21:49.096Z,3.72
2023-01-23T12:27:33.738Z,3.69
2023-01-23T12:33:07.527Z,3.76
2023-01-23T12:38:48.839Z,3.82
2023-01-23T12:44:43.094Z,3.84
2023-01-23T12:50:41.956Z,3.87
2023-01-23T12:56:35.864Z,4.02
2023-01-23T13:02:21.176Z,4.20
2023-01-23T13:08:13.115Z,4.42
2023-01-23T13:13:29.809Z,4.45
2023-01-23T13:19:06.753Z,4.40
2023-01-23T13:24:47.944Z,4.36
2023-01-23T13:30:22.548Z,4.31
2023-01-23T13:35:44.248Z,4.25
2023-01-23T13:41:13.539Z,4.19
2023-01-23T14:20:39.473Z,3.46
2023-01-23T14:25:42.091Z,3.42
2023-01-23T14:30:59.299Z,3.40
2023-01-23T14:36:17.992Z,3.35
2023-01-23T14:41:27.998Z,3.28
2023-01-23T14:46:36.369Z,3.20
2023-01-23T14:51:50.267Z,3.14
2023-01-23T14:56:55.914Z,3.10
2023-01-23T15:02:01.866Z,3.11
2023-01-23T15:07:14.429Z,3.12
2023-01-23T15:12:34.481Z,3.10
2023-01-23T15:17:44.739Z,3.00
2023-01-23T15:22:46.859Z,2.90
2023-01-23T15:27:48.791Z,2.89
2023-01-23T15:33:39.935Z,2.90
2023-01-23T15:38:51.166Z,2.84
2023-01-23T15:44:02.804Z,2.80
2023-01-23T15:49:06.911Z,2.74
2023-01-23T15:54:24.762Z,2.68
2023-01-23T15:59:34.680Z,2.67
2023-01-23T16:04:40.688Z,2.70
2023-01-23T16:09:46.680Z,2.76
2023-01-23T16:15:21.179Z,2.74
2023-01-23T16:20:45.609Z,2.68
2023-01-23T16:26:08.301Z,2.61
2023-01-23T16:31:22.664Z,2.59
2023-01-23T16:36:32.828Z,2.62
2023-01-23T16:41:46.584Z,2.64
2023-01-23T16:46:50.307Z,2.64
2023-01-23T16:52:00.788Z,2.61
2023-01-23T16:57:23.370Z,2.58
2023-01-23T17:02:31.248Z,2.58
2023-01-23T17:08:41.384Z,2.59
2023-01-23T17:14:02.047Z,2.64
2023-01-23T17:19:43.346Z,2.59
2023-01-23T17:25:31.982Z,2.54
2023-01-23T17:31:51.842Z,2.51
2023-01-23T17:37:17.291Z,2.51
2023-01-23T17:42:21.794Z,2.50
2023-01-23T17:48:07.194Z,2.45
2023-01-23T17:53:19.263Z,2.44
2023-01-23T17:58:21.331Z,2.45
2023-01-23T18:03:26.933Z,2.45
2023-01-23T18:08:35.200Z,2.45
2023-01-23T18:14:20.925Z,2.44
2023-01-23T18:19:31.294Z,2.46
2023-01-23T18:24:34.346Z,2.47
2023-01-23T18:30:20.395Z,2.46
2023-01-23T18:35:46.771Z,2.42
2023-01-23T18:41:06.371Z,2.41
2023-01-23T18:46:27.021Z,2.43
2023-01-23T18:51:32.194Z,2.42
2023-01-23T18:57:07.693Z,2.43
2023-01-23T19:02:23.243Z,2.41
2023-01-23T19:07:25.349Z,2.39
2023-01-23T19:12:33.713Z,2.42
2023-01-23T19:17:49.585Z,2.47
2023-01-23T19:23:30.574Z,2.48
2023-01-23T19:28:40.137Z,2.45
2023-01-23T19:33:42.061Z,2.43
2023-01-23T19:38:46.690Z,2.41
2023-01-23T19:43:50.791Z,2.43
2023-01-23T19:49:03.934Z,2.47
2023-01-23T19:54:25.096Z,2.46
2023-01-23T19:59:37.611Z,2.46
2023-01-23T20:04:59.572Z,2.41
2023-01-23T20:10:07.702Z,2.43
2023-01-23T20:15:11.793Z,2.50
2023-01-23T20:20:37.407Z,2.58
2023-01-23T20:25:39.595Z,2.59
2023-01-23T20:30:42.530Z,2.53
2023-01-23T20:35:58.369Z,2.52
2023-01-23T20:41:20.899Z,2.50
2023-01-23T20:46:37.545Z,2.50
2023-01-23T20:51:44.634Z,2.47
2023-01-23T20:56:51.105Z,2.40
2023-01-23T21:02:27.519Z,2.36
2023-01-23T21:07:33.023Z,2.41
2023-01-23T21:12:37.969Z,2.45
2023-01-23T21:17:39.441Z,2.43
2023-01-23T21:22:49.318Z,2.45
2023-01-23T21:27:57.481Z,2.42
2023-01-23T21:33:04.186Z,2.44
2023-01-23T21:38:12.000Z,2.50
2023-01-23T21:43:17.203Z,2.43
2023-01-23T21:48:19.604Z,2.38
2023-01-23T21:53:27.597Z,2.38
2023-01-23T21:58:31.857Z,2.39
2023-01-23T22:03:56.862Z,2.41
2023-01-23T22:08:58.934Z,2.39
2023-01-23T22:15:07.159Z,2.34
2023-01-23T22:21:23.999Z,2.29
2023-01-23T22:26:40.594Z,2.30
2023-01-23T22:31:55.849Z,2.31
2023-01-23T22:37:03.463Z,2.31
2023-01-23T22:42:13.293Z,2.31
2023-01-23T22:47:15.439Z,2.28
2023-01-23T22:52:45.379Z,2.29
2023-01-23T22:57:52.383Z,2.35
2023-01-23T23:03:03.474Z,2.36
2023-01-23T23:08:13.779Z,2.35
2023-01-23T23:13:18.757Z,2.36
2023-01-23T23:18:23.686Z,2.38
2023-01-23T23:23:29.028Z,2.44
2023-01-23T23:28:51.732Z,2.48
2023-01-23T23:34:57.115Z,2.45
2023-01-23T23:40:02.517Z,2.42
2023-01-23T23:45:06.029Z,2.42
2023-01-23T23:50:22.044Z,2.47
2023-01-23T23:55:30.612Z,2.50
